Time;durP1;ratioP1;P1;durP2;ratioP2;P2;SDS_P1;SDS_P2;PMS_P1;PMS_P2;Temp;Humidity;BMP_temperature;BMP_pressure;BME280_temperature;BME280_humidity;BME280_pressure;Samples;Min_cycle;Max_cycle;Signal;HPM_P1;HPM_P2
2023/06/16 00:00:15;;;;;;;3.63;3.10;;;21.40;61.20;;;;;;5007460;28;20451;-62
2023/06/16 00:02:41;;;;;;;3.00;2.70;;;21.40;61.80;;;;;;5002091;28;20550;-56
2023/06/16 00:05:12;;;;;;;3.30;2.60;;;21.40;61.20;;;;;;5000983;28;20423;-59
2023/06/16 00:07:38;;;;;;;3.40;3.10;;;21.40;61.20;;;;;;5005667;28;20164;-56
2023/06/16 00:10:06;;;;;;;3.00;2.70;;;21.40;61.20;;;;;;5012748;28;20113;-60
2023/06/16 00:12:32;;;;;;;3.25;2.60;;;21.40;61.20;;;;;;5009109;28;20180;-57
2023/06/16 00:14:57;;;;;;;3.00;2.70;;;21.40;61.30;;;;;;4997371;28;20042;-63
2023/06/16 00:17:23;;;;;;;3.35;2.92;;;21.40;61.20;;;;;;4995205;28;20045;-61
2023/06/16 00:19:49;;;;;;;2.95;2.75;;;21.40;61.20;;;;;;4994172;28;20488;-58
2023/06/16 00:22:17;;;;;;;3.17;2.88;;;21.40;61.20;;;;;;5003073;28;20108;-57
2023/06/16 00:24:44;;;;;;;3.38;2.97;;;21.40;61.20;;;;;;4997729;28;20735;-57
2023/06/16 00:27:10;;;;;;;3.05;2.75;;;21.40;61.30;;;;;;5009563;28;20486;-59
2023/06/16 00:29:38;;;;;;;2.97;2.67;;;21.30;61.20;;;;;;4998767;28;20373;-58
2023/06/16 00:32:03;;;;;;;2.85;2.60;;;21.40;61.30;;;;;;4997019;28;20034;-58
2023/06/16 00:34:29;;;;;;;3.95;2.72;;;21.40;61.20;;;;;;4998907;28;20087;-56
2023/06/16 00:36:55;;;;;;;3.30;2.88;;;21.30;61.20;;;;;;5009682;28;20144;-59
2023/06/16 00:39:21;;;;;;;3.92;2.95;;;21.30;61.20;;;;;;5005060;28;20113;-58
2023/06/16 00:41:47;;;;;;;3.08;2.78;;;21.30;61.20;;;;;;5020489;28;21817;-57
2023/06/16 00:44:12;;;;;;;3.35;2.88;;;21.30;61.20;;;;;;4987874;28;20034;-61
2023/06/16 00:46:37;;;;;;;4.28;3.10;;;21.40;61.30;;;;;;4988127;28;20027;-58
2023/06/16 00:49:04;;;;;;;2.88;2.58;;;21.30;61.30;;;;;;4996185;28;20042;-58
2023/06/16 00:51:30;;;;;;;3.05;2.78;;;21.30;61.20;;;;;;5005869;28;20068;-57
2023/06/16 00:53:57;;;;;;;4.82;2.70;;;21.30;61.20;;;;;;4995482;28;20049;-58
2023/06/16 00:56:23;;;;;;;3.03;2.72;;;21.30;61.30;;;;;;4997093;28;20026;-61
2023/06/16 00:58:51;;;;;;;3.03;2.72;;;21.30;61.20;;;;;;4997910;28;20030;-57
2023/06/16 01:01:17;;;;;;;3.92;3.05;;;21.30;61.30;;;;;;4995316;28;20034;-61
2023/06/16 01:03:44;;;;;;;3.55;3.15;;;21.30;61.30;;;;;;4994832;28;20518;-59
2023/06/16 01:06:35;;;;;;;3.42;3.13;;;21.30;61.20;;;;;;5008072;28;20064;-60
2023/06/16 01:09:14;;;;;;;3.95;2.67;;;21.30;61.30;;;;;;5004933;28;20021;-59
2023/06/16 01:11:59;;;;;;;2.83;2.60;;;21.30;61.20;;;;;;5007258;28;20025;-57
2023/06/16 01:14:47;;;;;;;3.08;2.70;;;21.30;61.30;;;;;;4996319;28;20148;-57
2023/06/16 01:17:15;;;;;;;3.17;2.58;;;21.30;61.20;;;;;;4997975;28;20088;-58
2023/06/16 01:20:01;;;;;;;2.65;2.42;;;21.30;61.30;;;;;;4994140;28;20117;-60
2023/06/16 01:22:42;;;;;;;5.45;2.83;;;21.30;61.20;;;;;;5000123;28;20034;-58
2023/06/16 01:25:14;;;;;;;3.38;2.67;;;21.30;61.30;;;;;;5002718;28;20434;-60
2023/06/16 01:27:47;;;;;;;2.90;2.70;;;21.30;61.90;;;;;;5000427;28;20452;-60
2023/06/16 01:30:15;;;;;;;3.17;2.55;;;21.30;61.90;;;;;;4998767;28;20027;-58
2023/06/16 01:32:43;;;;;;;2.83;2.33;;;21.30;61.30;;;;;;5006254;28;20045;-59
2023/06/16 01:35:10;;;;;;;3.65;2.83;;;21.30;61.30;;;;;;5003167;28;20056;-57
2023/06/16 01:37:38;;;;;;;3.40;3.10;;;21.30;61.30;;;;;;5009863;28;20034;-55
2023/06/16 01:40:05;;;;;;;4.28;2.70;;;21.30;61.90;;;;;;5005708;28;20057;-59
2023/06/16 01:42:31;;;;;;;2.85;2.65;;;21.30;61.30;;;;;;5000418;28;20761;-58
2023/06/16 01:44:57;;;;;;;3.38;3.08;;;21.30;61.30;;;;;;5001653;28;20048;-59
2023/06/16 01:47:23;;;;;;;4.65;3.00;;;21.30;61.40;;;;;;5005002;28;20503;-58
2023/06/16 01:49:50;;;;;;;3.50;2.95;;;21.30;61.30;;;;;;5005984;28;20072;-57
2023/06/16 01:52:16;;;;;;;3.97;3.20;;;21.30;61.40;;;;;;5008580;28;20042;-60
2023/06/16 01:54:42;;;;;;;3.25;2.80;;;21.30;61.40;;;;;;5009011;28;20443;-61
2023/06/16 01:57:08;;;;;;;3.03;2.63;;;21.20;61.30;;;;;;5004014;28;20030;-58
2023/06/16 01:59:33;;;;;;;3.25;2.95;;;21.30;61.40;;;;;;4999963;28;20034;-60
2023/06/16 02:04:32;;;;;;;2.97;2.67;;;21.30;61.30;;;;;;5020177;28;20041;-57
2023/06/16 02:07:09;;;;;;;4.25;3.30;;;21.30;61.30;;;;;;5022673;28;20029;-61
2023/06/16 02:09:36;;;;;;;3.72;2.97;;;21.30;61.30;;;;;;5017639;28;20037;-62
2023/06/16 02:12:03;;;;;;;3.28;2.85;;;21.30;61.40;;;;;;4999304;28;20129;-59
2023/06/16 02:14:30;;;;;;;3.17;2.80;;;21.20;61.30;;;;;;4999156;28;20042;-60
2023/06/16 02:16:56;;;;;;;4.10;3.05;;;21.20;61.30;;;;;;4984465;28;20030;-57
2023/06/16 02:19:21;;;;;;;4.60;2.88;;;21.30;61.40;;;;;;4998323;28;20411;-62
2023/06/16 02:21:47;;;;;;;3.85;3.20;;;21.20;61.30;;;;;;4995735;28;20048;-62
2023/06/16 02:24:12;;;;;;;3.30;2.75;;;21.20;61.30;;;;;;4995291;28;20042;-58
2023/06/16 02:26:38;;;;;;;3.30;3.00;;;21.30;61.40;;;;;;4995528;28;20038;-60
2023/06/16 02:29:04;;;;;;;3.17;2.88;;;21.20;61.30;;;;;;4994219;28;20088;-61
2023/06/16 02:31:30;;;;;;;3.45;2.80;;;21.20;61.30;;;;;;4991486;28;20039;-62
2023/06/16 02:33:56;;;;;;;3.30;2.97;;;21.20;61.30;;;;;;5002112;28;20030;-61
2023/06/16 02:36:22;;;;;;;3.17;2.72;;;21.20;61.30;;;;;;5000359;28;20034;-63
2023/06/16 02:38:47;;;;;;;2.75;2.55;;;21.20;61.30;;;;;;4999223;28;20053;-61
2023/06/16 02:41:13;;;;;;;3.35;3.00;;;21.20;61.30;;;;;;4997430;28;20038;-61
2023/06/16 02:43:39;;;;;;;3.63;3.10;;;21.20;61.30;;;;;;4999211;28;20515;-59
2023/06/16 02:46:06;;;;;;;3.42;3.05;;;21.20;61.30;;;;;;4989813;28;20105;-58
2023/06/16 02:48:32;;;;;;;3.50;3.20;;;21.20;61.30;;;;;;5001339;28;20114;-60
2023/06/16 02:50:57;;;;;;;3.08;2.78;;;21.20;61.30;;;;;;4983608;28;20030;-63
2023/06/16 02:53:24;;;;;;;3.30;3.00;;;21.20;61.30;;;;;;4994261;28;20065;-60
2023/06/16 02:55:51;;;;;;;3.80;2.85;;;21.20;61.30;;;;;;4994086;28;20038;-60
2023/06/16 02:58:17;;;;;;;3.53;2.78;;;21.20;61.30;;;;;;4993980;28;20037;-62
2023/06/16 03:00:43;;;;;;;4.53;3.35;;;21.20;61.30;;;;;;4996284;28;20597;-61
2023/06/16 03:03:09;;;;;;;3.20;2.90;;;21.20;61.30;;;;;;5000535;28;20045;-61
2023/06/16 03:05:36;;;;;;;3.50;3.20;;;21.20;61.30;;;;;;4999422;28;20061;-62
2023/06/16 03:08:02;;;;;;;3.83;3.10;;;21.20;61.30;;;;;;4999773;28;20030;-61
2023/06/16 03:10:27;;;;;;;5.00;3.30;;;21.20;61.30;;;;;;4998084;28;20112;-62
2023/06/16 03:12:53;;;;;;;4.15;3.03;;;21.20;61.30;;;;;;4998806;28;20376;-60
2023/06/16 03:15:19;;;;;;;2.72;2.53;;;21.20;61.30;;;;;;4996057;28;20113;-60
2023/06/16 03:17:47;;;;;;;3.45;3.15;;;21.20;61.30;;;;;;4997492;28;20038;-58
2023/06/16 03:20:12;;;;;;;3.28;2.78;;;21.20;61.30;;;;;;4996282;28;20117;-61
2023/06/16 03:22:38;;;;;;;4.25;3.42;;;21.20;61.40;;;;;;4994605;28;20121;-59
2023/06/16 03:25:04;;;;;;;3.40;3.10;;;21.20;61.30;;;;;;4994141;28;20064;-61
2023/06/16 03:27:29;;;;;;;5.03;3.53;;;21.20;61.30;;;;;;4993075;28;20038;-62
2023/06/16 03:29:55;;;;;;;3.40;3.10;;;21.20;61.30;;;;;;4967632;28;20025;-61
2023/06/16 03:32:21;;;;;;;3.20;2.90;;;21.20;61.30;;;;;;4999430;28;20125;-62
2023/06/16 03:34:48;;;;;;;3.20;2.90;;;21.20;61.30;;;;;;4998978;28;20722;-59
2023/06/16 03:37:14;;;;;;;3.40;3.10;;;21.20;61.30;;;;;;4997050;28;20196;-61
2023/06/16 03:39:40;;;;;;;3.33;2.78;;;21.20;61.20;;;;;;4997815;28;20038;-59
2023/06/16 03:42:06;;;;;;;3.17;2.88;;;21.10;61.20;;;;;;4996754;28;20116;-61
2023/06/16 03:44:31;;;;;;;3.55;3.25;;;21.20;61.20;;;;;;4996889;28;20053;-61
2023/06/16 03:46:57;;;;;;;3.70;3.00;;;21.20;61.20;;;;;;4996643;28;20038;-57
2023/06/16 03:49:22;;;;;;;4.03;2.90;;;21.20;61.20;;;;;;4994384;28;20053;-61
2023/06/16 03:51:48;;;;;;;3.53;3.22;;;21.20;61.20;;;;;;4991979;28;20137;-58
2023/06/16 03:54:14;;;;;;;3.90;3.03;;;21.20;61.10;;;;;;4990467;28;20029;-62
2023/06/16 03:56:39;;;;;;;3.47;3.17;;;21.20;61.20;;;;;;4996004;28;20030;-58
2023/06/16 03:59:05;;;;;;;3.30;2.88;;;21.20;61.10;;;;;;4989409;28;20038;-59
2023/06/16 04:01:31;;;;;;;3.58;3.28;;;21.20;61.10;;;;;;4997530;28;20037;-58
2023/06/16 04:03:57;;;;;;;3.53;3.10;;;21.10;61.10;;;;;;4998869;28;20566;-60
2023/06/16 04:06:23;;;;;;;4.00;3.45;;;21.20;61.20;;;;;;4996664;28;20038;-61
2023/06/16 04:08:49;;;;;;;3.95;3.33;;;21.20;61.20;;;;;;4997223;28;20113;-59
2023/06/16 04:11:15;;;;;;;3.53;3.20;;;21.10;61.80;;;;;;4995934;28;20129;-60
2023/06/16 04:13:41;;;;;;;3.58;3.28;;;21.10;61.10;;;;;;4995383;28;20042;-60
2023/06/16 04:16:06;;;;;;;3.13;2.83;;;21.10;61.10;;;;;;4995244;28;20049;-60
2023/06/16 04:18:32;;;;;;;3.40;3.10;;;21.10;61.10;;;;;;4994129;28;21754;-61
2023/06/16 04:20:57;;;;;;;3.88;3.20;;;21.10;61.20;;;;;;4995826;28;20027;-62
2023/06/16 04:23:23;;;;;;;3.47;3.17;;;21.10;61.20;;;;;;4992026;28;20432;-60
2023/06/16 04:25:48;;;;;;;4.45;3.05;;;21.10;61.10;;;;;;4994589;28;20106;-61
2023/06/16 04:28:14;;;;;;;3.92;3.40;;;21.10;61.10;;;;;;4992532;28;20031;-59
2023/06/16 04:30:43;;;;;;;3.45;3.15;;;21.10;61.10;;;;;;4998645;28;20038;-61
2023/06/16 04:33:10;;;;;;;3.15;2.70;;;21.10;61.10;;;;;;4999244;28;20038;-57
2023/06/16 04:35:36;;;;;;;3.15;2.85;;;21.10;61.10;;;;;;4997838;28;20041;-60
2023/06/16 04:38:02;;;;;;;3.13;2.80;;;21.10;61.10;;;;;;4996506;28;20038;-58
2023/06/16 04:40:29;;;;;;;3.30;3.00;;;21.10;61.10;;;;;;4988069;28;20042;-61
2023/06/16 04:42:55;;;;;;;3.85;3.17;;;21.10;61.00;;;;;;4997628;28;20034;-60
2023/06/16 04:45:21;;;;;;;5.18;3.67;;;21.10;61.10;;;;;;4995410;28;20534;-60
2023/06/16 04:47:46;;;;;;;4.38;2.92;;;21.10;61.10;;;;;;4992905;28;20287;-59
2023/06/16 04:50:13;;;;;;;3.08;2.78;;;21.10;61.00;;;;;;4992122;28;20034;-60
2023/06/16 04:52:39;;;;;;;3.58;3.05;;;21.10;61.10;;;;;;4993797;28;20026;-59
2023/06/16 04:55:06;;;;;;;3.42;3.13;;;21.10;61.10;;;;;;4992447;28;20045;-58
2023/06/16 04:57:32;;;;;;;3.50;3.20;;;21.10;61.10;;;;;;4993372;28;20161;-62
2023/06/16 04:59:58;;;;;;;4.70;3.58;;;21.10;61.10;;;;;;4996727;28;20450;-60
2023/06/16 05:02:24;;;;;;;4.18;3.67;;;21.10;61.10;;;;;;4994158;28;20054;-58
2023/06/16 05:04:50;;;;;;;3.83;3.53;;;21.10;61.10;;;;;;4997258;28;20514;-60
2023/06/16 05:07:15;;;;;;;3.63;3.33;;;21.10;61.10;;;;;;4994316;28;20019;-59
2023/06/16 05:09:41;;;;;;;3.70;3.30;;;21.10;61.10;;;;;;4996354;28;20098;-61
2023/06/16 05:12:07;;;;;;;3.28;2.85;;;21.10;61.10;;;;;;4995073;28;20034;-61
2023/06/16 05:14:33;;;;;;;3.20;2.80;;;21.10;61.10;;;;;;4995850;28;20666;-58
2023/06/16 05:16:59;;;;;;;4.72;2.90;;;21.10;61.10;;;;;;4995591;28;20022;-58
2023/06/16 05:19:24;;;;;;;4.53;3.38;;;21.10;61.10;;;;;;4992332;28;20042;-60
2023/06/16 05:21:50;;;;;;;3.05;2.72;;;21.10;61.10;;;;;;4992060;28;20056;-60
2023/06/16 05:24:15;;;;;;;3.30;3.00;;;21.10;61.10;;;;;;4996705;28;20424;-61
2023/06/16 05:26:41;;;;;;;3.55;3.25;;;21.10;61.10;;;;;;4999814;28;20026;-61
2023/06/16 05:29:07;;;;;;;3.33;2.80;;;21.10;61.10;;;;;;5000661;28;20032;-60
2023/06/16 05:31:33;;;;;;;3.15;2.85;;;21.10;61.10;;;;;;4997618;28;20448;-62
2023/06/16 05:33:59;;;;;;;4.15;3.10;;;21.10;61.10;;;;;;4997557;28;20026;-59
2023/06/16 05:36:25;;;;;;;4.03;2.78;;;21.10;61.10;;;;;;4995073;28;20067;-61
2023/06/16 05:38:51;;;;;;;3.60;3.00;;;21.10;61.10;;;;;;4996522;28;20030;-63
2023/06/16 05:41:17;;;;;;;3.75;3.03;;;21.10;61.20;;;;;;4995260;28;20425;-58
2023/06/16 05:43:43;;;;;;;3.45;3.15;;;21.10;61.10;;;;;;4981874;28;20026;-61
2023/06/16 05:46:08;;;;;;;4.15;3.72;;;21.10;61.20;;;;;;4994302;28;20314;-59
2023/06/16 05:48:35;;;;;;;3.38;2.97;;;21.10;61.10;;;;;;4996644;28;20034;-62
2023/06/16 05:51:00;;;;;;;3.45;2.92;;;21.10;61.10;;;;;;4992846;28;20061;-61
2023/06/16 05:53:26;;;;;;;3.30;3.00;;;21.00;61.10;;;;;;4996436;28;20437;-60
2023/06/16 05:55:51;;;;;;;5.25;3.25;;;21.10;61.10;;;;;;4994627;28;20106;-60
2023/06/16 05:58:16;;;;;;;3.53;3.05;;;21.10;61.70;;;;;;4999589;28;20018;-57
2023/06/16 06:00:42;;;;;;;3.28;2.92;;;21.10;61.00;;;;;;5001804;28;20041;-59
2023/06/16 06:03:08;;;;;;;3.25;2.95;;;21.10;61.00;;;;;;4999088;28;20038;-62
2023/06/16 06:05:33;;;;;;;3.58;3.28;;;21.10;60.90;;;;;;4998977;28;20056;-58
2023/06/16 06:07:59;;;;;;;4.55;3.20;;;21.10;61.00;;;;;;4998322;28;20034;-59
2023/06/16 06:10:24;;;;;;;5.47;3.20;;;21.10;60.90;;;;;;4997364;28;20467;-62
2023/06/16 06:12:50;;;;;;;3.80;3.40;;;21.10;60.90;;;;;;4997570;28;20109;-59
2023/06/16 06:15:17;;;;;;;3.50;3.20;;;21.10;60.90;;;;;;4995114;28;20033;-62
2023/06/16 06:17:43;;;;;;;3.88;3.10;;;21.10;60.80;;;;;;4995294;28;20256;-62
2023/06/16 06:20:09;;;;;;;3.63;2.80;;;21.10;60.80;;;;;;4994095;28;20113;-61
2023/06/16 06:22:35;;;;;;;4.00;3.38;;;21.10;60.90;;;;;;4995748;28;20042;-58
2023/06/16 06:25:01;;;;;;;4.88;3.38;;;21.10;60.80;;;;;;4993571;28;20105;-59
2023/06/16 06:27:26;;;;;;;3.92;3.53;;;21.10;60.80;;;;;;4995390;28;20467;-58
2023/06/16 06:29:52;;;;;;;4.18;3.70;;;21.10;60.60;;;;;;4983620;28;20078;-61
2023/06/16 06:32:17;;;;;;;4.07;3.15;;;21.10;60.60;;;;;;4998320;28;20030;-60
2023/06/16 06:34:43;;;;;;;5.85;3.45;;;21.10;60.60;;;;;;4998765;28;20014;-60
2023/06/16 06:37:16;;;;;;;3.50;3.15;;;21.10;60.60;;;;;;4998384;28;20444;-60
2023/06/16 06:39:41;;;;;;;4.95;3.67;;;21.10;60.60;;;;;;4998801;28;20081;-59
2023/06/16 06:42:07;;;;;;;4.03;3.40;;;21.10;60.50;;;;;;4982251;28;20289;-57
2023/06/16 06:44:33;;;;;;;3.40;3.10;;;21.10;60.50;;;;;;4995977;28;20110;-61
2023/06/16 06:46:58;;;;;;;3.88;3.35;;;21.10;60.60;;;;;;4994482;28;20104;-61
2023/06/16 06:49:24;;;;;;;4.32;3.22;;;21.10;60.60;;;;;;4993998;28;20211;-61
2023/06/16 06:51:50;;;;;;;4.07;3.67;;;21.10;60.60;;;;;;4996839;28;20401;-58
2023/06/16 06:54:16;;;;;;;4.13;3.47;;;21.10;60.60;;;;;;4998403;28;20463;-62
2023/06/16 06:56:41;;;;;;;5.25;3.60;;;21.20;60.50;;;;;;4997408;28;20079;-59
2023/06/16 06:59:07;;;;;;;3.83;3.33;;;21.10;60.50;;;;;;5000956;28;20079;-62
2023/06/16 07:01:32;;;;;;;4.22;3.83;;;21.10;60.50;;;;;;4998764;28;20441;-61
2023/06/16 07:03:58;;;;;;;4.05;3.65;;;21.10;60.60;;;;;;4982017;28;20130;-58
2023/06/16 07:06:23;;;;;;;4.15;3.33;;;21.10;60.60;;;;;;4998113;28;20042;-60
2023/06/16 07:08:50;;;;;;;5.40;3.92;;;21.10;60.80;;;;;;4997909;28;20030;-60
2023/06/16 07:11:16;;;;;;;4.45;3.70;;;21.10;60.70;;;;;;4994831;28;20042;-62
2023/06/16 07:13:41;;;;;;;3.70;3.00;;;21.10;60.80;;;;;;4997140;28;20049;-60
2023/06/16 07:16:07;;;;;;;3.67;3.20;;;21.10;61.10;;;;;;4994429;28;20538;-62
2023/06/16 07:18:32;;;;;;;5.93;3.55;;;21.10;61.00;;;;;;4995286;28;20030;-58
2023/06/16 07:20:58;;;;;;;5.10;3.65;;;21.10;60.80;;;;;;4994642;28;20038;-58
2023/06/16 07:23:25;;;;;;;4.00;3.45;;;21.10;61.00;;;;;;4990343;28;20038;-62
2023/06/16 07:25:51;;;;;;;7.18;4.10;;;21.10;61.10;;;;;;5001057;28;20120;-59
2023/06/16 07:28:17;;;;;;;4.15;3.70;;;21.10;61.20;;;;;;5004869;28;20131;-60
2023/06/16 07:30:42;;;;;;;4.07;3.60;;;21.10;61.20;;;;;;4998197;28;20663;-60
2023/06/16 07:33:08;;;;;;;8.10;3.75;;;21.10;60.80;;;;;;4996246;28;20037;-60
2023/06/16 07:35:34;;;;;;;4.97;4.07;;;21.10;61.10;;;;;;5000532;28;20034;-60
2023/06/16 07:37:59;;;;;;;7.13;4.18;;;21.10;60.90;;;;;;4996805;28;20109;-60
2023/06/16 07:40:25;;;;;;;6.70;4.10;;;21.10;61.00;;;;;;4995639;28;20030;-59
2023/06/16 07:42:50;;;;;;;8.93;4.05;;;21.10;61.00;;;;;;4984975;28;20049;-58
2023/06/16 07:45:17;;;;;;;7.68;4.88;;;21.10;60.90;;;;;;4978635;28;20197;-59
2023/06/16 07:47:43;;;;;;;6.35;3.80;;;21.10;61.80;;;;;;4991258;28;20022;-58
2023/06/16 07:50:10;;;;;;;6.18;4.72;;;21.10;61.20;;;;;;4992446;28;20391;-59
2023/06/16 07:52:36;;;;;;;6.47;3.50;;;21.10;61.10;;;;;;4974316;28;20041;-59
2023/06/16 07:55:02;;;;;;;7.47;4.80;;;21.10;61.00;;;;;;4995381;28;20041;-60
2023/06/16 07:57:27;;;;;;;7.70;4.47;;;21.10;61.00;;;;;;4996971;28;20025;-58
2023/06/16 07:59:53;;;;;;;7.03;3.78;;;21.10;61.00;;;;;;4995426;28;20109;-59
2023/06/16 08:02:18;;;;;;;5.95;4.10;;;21.10;60.90;;;;;;4995121;28;20034;-60
2023/06/16 08:04:45;;;;;;;3.70;3.30;;;21.10;60.90;;;;;;4996262;28;20034;-60
2023/06/16 08:07:10;;;;;;;5.20;3.78;;;21.10;60.90;;;;;;4994656;28;20032;-59
2023/06/16 08:09:36;;;;;;;5.32;3.92;;;21.10;60.90;;;;;;4997715;28;20085;-59
2023/06/16 08:12:02;;;;;;;6.10;4.50;;;21.10;60.90;;;;;;4994335;28;20128;-59
2023/06/16 08:14:28;;;;;;;5.72;4.45;;;21.10;61.00;;;;;;4994647;28;20407;-59
2023/06/16 08:16:53;;;;;;;5.32;4.72;;;21.10;60.90;;;;;;4992406;28;20035;-60
2023/06/16 08:19:19;;;;;;;8.55;4.35;;;21.10;61.00;;;;;;4992807;28;20029;-59
2023/06/16 08:21:44;;;;;;;13.02;4.85;;;21.10;61.00;;;;;;4992655;28;20045;-61
2023/06/16 08:24:10;;;;;;;11.07;4.68;;;21.10;61.20;;;;;;4992893;28;20028;-60
2023/06/16 08:26:35;;;;;;;9.05;4.53;;;21.10;61.10;;;;;;4999747;28;20041;-60
2023/06/16 08:29:03;;;;;;;8.73;4.85;;;21.10;61.10;;;;;;4997707;28;20026;-59
2023/06/16 08:31:28;;;;;;;5.78;4.13;;;21.10;61.30;;;;;;4995236;28;20492;-60
2023/06/16 08:33:54;;;;;;;10.52;5.13;;;21.10;61.30;;;;;;4994135;28;20121;-60
2023/06/16 08:36:21;;;;;;;7.85;5.30;;;21.10;61.20;;;;;;4997664;28;20464;-59
2023/06/16 08:38:46;;;;;;;9.68;4.97;;;21.10;61.30;;;;;;4994294;28;20599;-60
2023/06/16 08:41:14;;;;;;;10.68;5.18;;;21.10;61.30;;;;;;4994379;28;20034;-59
2023/06/16 08:43:43;;;;;;;9.90;4.85;;;21.00;61.30;;;;;;4992069;28;20368;-60
2023/06/16 08:46:08;;;;;;;8.60;5.13;;;21.00;61.30;;;;;;4992445;28;20038;-60
2023/06/16 08:48:36;;;;;;;11.07;5.00;;;21.00;61.20;;;;;;4991596;28;20074;-62
2023/06/16 08:51:03;;;;;;;7.88;5.05;;;21.10;61.60;;;;;;4992330;28;20034;-60
2023/06/16 08:53:33;;;;;;;6.45;5.03;;;21.10;61.40;;;;;;4990571;28;20092;-62
2023/06/16 08:56:02;;;;;;;8.27;4.90;;;21.10;61.50;;;;;;5000512;28;20034;-61
2023/06/16 08:58:32;;;;;;;9.30;4.95;;;21.10;61.50;;;;;;4980452;28;20085;-59
2023/06/16 09:00:59;;;;;;;7.68;4.78;;;21.10;61.60;;;;;;4994964;28;20034;-61
2023/06/16 09:03:26;;;;;;;8.10;4.70;;;21.10;61.60;;;;;;4996161;28;20046;-61
2023/06/16 09:05:52;;;;;;;7.22;4.72;;;21.10;61.70;;;;;;4996875;28;20488;-60
2023/06/16 09:08:19;;;;;;;7.00;4.90;;;21.10;61.70;;;;;;4995767;28;20535;-62
2023/06/16 09:10:48;;;;;;;9.85;5.10;;;21.10;61.70;;;;;;4994181;28;20053;-61
2023/06/16 09:13:16;;;;;;;6.05;4.18;;;21.10;61.80;;;;;;4992058;28;20042;-61
2023/06/16 09:15:42;;;;;;;4.93;4.43;;;21.10;61.80;;;;;;4993481;28;20034;-62
2023/06/16 09:18:08;;;;;;;7.57;4.22;;;21.10;61.90;;;;;;4983117;28;20026;-61
2023/06/16 09:20:38;;;;;;;5.78;4.25;;;21.10;61.90;;;;;;4993047;28;20041;-62
2023/06/16 09:23:04;;;;;;;6.35;4.47;;;21.10;61.90;;;;;;5009158;28;20034;-60
2023/06/16 09:25:33;;;;;;;6.32;4.65;;;21.10;62.00;;;;;;5021154;28;20158;-61
2023/06/16 09:28:07;;;;;;;6.50;4.10;;;21.10;62.10;;;;;;5016797;28;20120;-60
2023/06/16 09:30:35;;;;;;;7.55;4.53;;;21.10;62.50;;;;;;4999329;28;20376;-62
2023/06/16 09:33:01;;;;;;;5.60;4.18;;;21.10;62.90;;;;;;5000040;28;20030;-62
2023/06/16 09:35:29;;;;;;;8.82;4.65;;;21.10;62.50;;;;;;4998770;28;20522;-60
2023/06/16 09:37:57;;;;;;;11.02;4.40;;;21.10;62.60;;;;;;4997918;28;20123;-61
2023/06/16 09:40:31;;;;;;;5.88;4.50;;;21.10;62.60;;;;;;4996695;28;20045;-61
2023/06/16 09:42:59;;;;;;;10.25;4.53;;;21.10;62.70;;;;;;4995137;28;20024;-61
2023/06/16 09:45:32;;;;;;;7.75;4.00;;;21.10;62.80;;;;;;4993470;28;20115;-61
2023/06/16 09:48:05;;;;;;;6.35;4.53;;;21.10;63.00;;;;;;4996398;28;20033;-62
2023/06/16 09:50:31;;;;;;;5.47;4.53;;;21.10;62.80;;;;;;4993003;28;20034;-62
2023/06/16 09:52:58;;;;;;;8.98;4.55;;;21.10;62.90;;;;;;5002842;28;20030;-62
2023/06/16 09:55:27;;;;;;;8.35;4.72;;;21.10;62.80;;;;;;5000449;28;20884;-61
2023/06/16 09:57:53;;;;;;;9.88;4.85;;;21.10;62.90;;;;;;5000904;28;20033;-61
2023/06/16 10:00:19;;;;;;;8.30;4.30;;;21.10;62.90;;;;;;4997922;28;20804;-63
2023/06/16 10:02:47;;;;;;;9.13;4.70;;;21.10;62.90;;;;;;4999144;28;20491;-62
2023/06/16 10:05:15;;;;;;;7.32;4.55;;;21.10;62.90;;;;;;4998717;28;20023;-62
2023/06/16 10:07:42;;;;;;;6.53;4.25;;;21.10;62.90;;;;;;4999246;28;20125;-62
2023/06/16 10:10:11;;;;;;;5.78;4.60;;;21.10;63.50;;;;;;4996548;28;20173;-61
2023/06/16 10:12:41;;;;;;;7.10;4.30;;;21.10;62.80;;;;;;4968559;28;20037;-62
2023/06/16 10:15:08;;;;;;;5.72;4.00;;;21.10;62.80;;;;;;4993761;28;20438;-61
2023/06/16 10:17:36;;;;;;;9.30;3.95;;;21.10;62.80;;;;;;4995284;28;20100;-62
2023/06/16 10:20:05;;;;;;;5.07;4.13;;;21.10;62.80;;;;;;4993458;28;20479;-62
2023/06/16 10:22:31;;;;;;;6.55;4.20;;;21.10;62.80;;;;;;4997631;28;20300;-63
2023/06/16 10:24:56;;;;;;;6.32;4.03;;;21.10;62.80;;;;;;5001184;28;20117;-61
2023/06/16 10:27:22;;;;;;;6.00;4.15;;;21.10;62.80;;;;;;4998611;28;20204;-62
2023/06/16 10:29:51;;;;;;;8.05;4.35;;;21.10;62.80;;;;;;4999637;28;20033;-63
2023/06/16 10:32:16;;;;;;;7.40;4.72;;;21.10;62.80;;;;;;4998604;28;20026;-60
2023/06/16 10:34:51;;;;;;;8.43;4.38;;;21.10;62.80;;;;;;4999925;28;20026;-62
2023/06/16 10:37:18;;;;;;;9.57;4.30;;;21.10;62.70;;;;;;4997865;28;20026;-61
2023/06/16 10:39:45;;;;;;;12.70;5.00;;;21.20;62.80;;;;;;4996102;28;20044;-62
2023/06/16 10:42:15;;;;;;;8.88;4.70;;;21.10;62.80;;;;;;4994645;28;20026;-64
2023/06/16 10:44:44;;;;;;;16.38;5.57;;;21.10;62.70;;;;;;4995240;28;20037;-63
2023/06/16 10:47:10;;;;;;;9.15;4.60;;;21.10;62.80;;;;;;4995922;28;20914;-62
2023/06/16 10:50:00;;;;;;;10.00;4.38;;;21.10;62.80;;;;;;4993768;28;20026;-61
2023/06/16 10:52:28;;;;;;;9.52;4.40;;;21.10;62.70;;;;;;4998990;28;20687;-63
2023/06/16 10:54:57;;;;;;;10.35;4.93;;;21.10;62.80;;;;;;5000289;28;20091;-62
2023/06/16 10:57:25;;;;;;;9.20;4.88;;;21.10;62.80;;;;;;4997808;28;20539;-63
2023/06/16 10:59:57;;;;;;;12.50;4.68;;;21.10;62.80;;;;;;4998748;28;20033;-60
2023/06/16 11:02:25;;;;;;;11.25;5.10;;;21.10;62.80;;;;;;4997175;28;20112;-62
2023/06/16 11:05:10;;;;;;;6.45;4.38;;;21.10;62.80;;;;;;4997023;28;20033;-62
2023/06/16 11:07:43;;;;;;;9.15;4.38;;;21.10;62.80;;;;;;4996779;28;20702;-63
2023/06/16 11:10:10;;;;;;;9.38;5.05;;;21.10;62.80;;;;;;4994448;28;20030;-62
2023/06/16 11:12:37;;;;;;;6.43;4.60;;;21.10;62.60;;;;;;4994995;28;20030;-61
2023/06/16 11:15:04;;;;;;;6.80;4.43;;;21.10;62.70;;;;;;4994461;28;20027;-63
2023/06/16 11:17:31;;;;;;;10.65;5.57;;;21.10;62.60;;;;;;4996857;28;20484;-63
2023/06/16 11:19:58;;;;;;;11.98;4.57;;;21.10;62.70;;;;;;4993478;28;20033;-62
2023/06/16 11:22:31;;;;;;;9.02;5.00;;;21.10;62.70;;;;;;4998357;28;20096;-61
2023/06/16 11:24:57;;;;;;;16.48;5.15;;;21.10;62.70;;;;;;4998931;28;20139;-61
2023/06/16 11:27:29;;;;;;;9.23;4.95;;;21.10;62.80;;;;;;4995092;28;20471;-62
2023/06/16 11:29:56;;;;;;;9.52;4.80;;;21.10;62.70;;;;;;4994336;28;20026;-62
2023/06/16 11:32:27;;;;;;;5.90;4.60;;;21.20;62.80;;;;;;4997795;28;20027;-62
2023/06/16 11:34:56;;;;;;;7.32;4.95;;;21.20;62.90;;;;;;4997449;28;20053;-61
2023/06/16 11:37:38;;;;;;;8.55;4.82;;;21.20;62.80;;;;;;4997422;28;20030;-61
2023/06/16 11:40:05;;;;;;;6.50;4.75;;;21.20;63.00;;;;;;4993231;28;20117;-61
2023/06/16 11:42:31;;;;;;;4.75;4.20;;;21.10;62.90;;;;;;4991776;28;20040;-61
2023/06/16 11:44:56;;;;;;;5.78;4.30;;;21.10;62.90;;;;;;4992505;28;20038;-62
2023/06/16 11:47:22;;;;;;;5.75;4.90;;;21.10;62.90;;;;;;4993584;28;20547;-61
2023/06/16 11:49:47;;;;;;;6.72;4.22;;;21.10;62.90;;;;;;4992542;28;20040;-63
2023/06/16 11:52:15;;;;;;;5.57;4.47;;;21.20;63.00;;;;;;4999824;28;20021;-64
2023/06/16 11:54:40;;;;;;;6.40;4.13;;;21.10;62.80;;;;;;4997878;28;20030;-61
2023/06/16 11:57:06;;;;;;;5.00;4.47;;;21.10;62.90;;;;;;4997787;28;20494;-62
2023/06/16 11:59:32;;;;;;;6.55;4.65;;;21.10;63.00;;;;;;4996934;28;20033;-61
2023/06/16 12:02:00;;;;;;;5.72;4.40;;;21.20;63.00;;;;;;4997379;28;20531;-63
2023/06/16 12:04:27;;;;;;;4.75;4.35;;;21.10;63.00;;;;;;4996329;28;20053;-62
2023/06/16 12:06:56;;;;;;;6.03;4.38;;;21.10;62.90;;;;;;4995997;28;20140;-62
2023/06/16 12:09:22;;;;;;;4.47;3.92;;;21.10;62.90;;;;;;4993473;28;20034;-63
2023/06/16 12:11:48;;;;;;;6.45;4.18;;;21.10;62.90;;;;;;4982255;28;20054;-62
2023/06/16 12:14:21;;;;;;;5.28;3.90;;;21.10;62.90;;;;;;4995104;28;20266;-64
2023/06/16 12:16:48;;;;;;;4.40;4.00;;;21.10;62.80;;;;;;4992162;28;20038;-62
2023/06/16 12:19:19;;;;;;;5.03;3.83;;;21.10;62.80;;;;;;4995020;28;20037;-63
2023/06/16 12:21:53;;;;;;;4.32;3.45;;;21.10;62.80;;;;;;4998832;28;20037;-63
2023/06/16 12:24:20;;;;;;;5.35;4.03;;;21.10;62.80;;;;;;4995764;28;20037;-61
2023/06/16 12:26:46;;;;;;;5.55;4.28;;;21.10;62.90;;;;;;4997184;28;20188;-63
2023/06/16 12:29:13;;;;;;;6.18;3.28;;;21.10;63.00;;;;;;4999015;28;20095;-61
2023/06/16 12:31:56;;;;;;;7.97;3.67;;;21.10;63.00;;;;;;5005383;28;20034;-63
2023/06/16 12:34:33;;;;;;;5.65;3.85;;;21.10;63.40;;;;;;4995430;28;20507;-62
2023/06/16 12:37:12;;;;;;;5.65;3.85;;;21.10;63.20;;;;;;5000633;28;20037;-61
2023/06/16 12:39:38;;;;;;;6.68;3.88;;;21.10;63.10;;;;;;4993979;28;20319;-62
2023/06/16 12:42:10;;;;;;;4.55;3.47;;;21.10;63.10;;;;;;5001471;28;20065;-60
2023/06/16 12:44:46;;;;;;;6.82;3.20;;;21.10;63.30;;;;;;4999658;28;20052;-62
2023/06/16 12:47:13;;;;;;;7.05;3.30;;;21.10;63.10;;;;;;5004791;28;20079;-61